Time;durP1;ratioP1;P1;durP2;ratioP2;P2;SDS_P1;SDS_P2;PMS_P1;PMS_P2;Temp;Humidity;BMP_temperature;BMP_pressure;BME280_temperature;BME280_humidity;BME280_pressure;Samples;Min_cycle;Max_cycle;Signal;HPM_P1;HPM_P2
2023/12/01 00:01:20;;;;;;;59.17;26.40;;;1.30;99.90;;;;;;5014359;28;20312;-83
2023/12/01 00:03:48;;;;;;;57.50;27.50;;;1.30;99.90;;;;;;5013287;28;20208;-87
2023/12/01 00:06:13;;;;;;;54.80;26.60;;;1.30;99.90;;;;;;4997742;28;20181;-84
2023/12/01 00:08:39;;;;;;;57.40;28.47;;;1.30;99.90;;;;;;4996799;28;20205;-83
2023/12/01 00:11:05;;;;;;;59.10;27.03;;;1.30;99.90;;;;;;5014188;28;20189;-85
2023/12/01 00:13:30;;;;;;;52.87;24.70;;;1.20;99.90;;;;;;5014224;28;20731;-84
2023/12/01 00:15:56;;;;;;;51.63;25.10;;;1.20;99.90;;;;;;5015425;28;20177;-83
2023/12/01 00:18:22;;;;;;;57.70;25.50;;;1.20;99.90;;;;;;5026476;28;20200;-84
2023/12/01 00:20:47;;;;;;;56.63;23.53;;;1.20;99.90;;;;;;5020653;28;20608;-83
2023/12/01 00:23:13;;;;;;;47.63;24.67;;;1.20;99.90;;;;;;5038145;28;20188;-85
2023/12/01 00:25:39;;;;;;;52.60;25.07;;;1.10;99.90;;;;;;5020369;28;20181;-84
2023/12/01 00:28:04;;;;;;;57.83;25.53;;;1.10;99.90;;;;;;5020466;28;20180;-84
2023/12/01 00:30:30;;;;;;;58.37;25.03;;;1.20;99.90;;;;;;5020050;28;20258;-85
2023/12/01 00:32:56;;;;;;;58.23;24.57;;;1.10;99.90;;;;;;5020071;28;20180;-85
2023/12/01 00:35:22;;;;;;;56.43;24.97;;;1.20;99.90;;;;;;5037938;28;20180;-86
2023/12/01 00:37:47;;;;;;;58.00;25.27;;;1.20;99.90;;;;;;5020159;28;20596;-83
2023/12/01 00:40:13;;;;;;;52.43;25.20;;;1.10;99.90;;;;;;5037727;28;20200;-83
2023/12/01 00:42:39;;;;;;;56.53;24.50;;;1.20;99.90;;;;;;5037296;28;20181;-85
2023/12/01 00:45:05;;;;;;;58.17;26.70;;;1.10;99.90;;;;;;5003843;28;20652;-85
2023/12/01 00:47:31;;;;;;;50.20;23.20;;;1.20;99.90;;;;;;5019957;28;20177;-85
2023/12/01 00:49:56;;;;;;;55.80;23.80;;;1.10;99.90;;;;;;5019986;28;20304;-86
2023/12/01 00:52:22;;;;;;;53.73;25.07;;;1.10;99.90;;;;;;5019967;28;20181;-85
2023/12/01 00:54:47;;;;;;;60.53;25.17;;;1.10;99.90;;;;;;5020069;28;20626;-86
2023/12/01 00:57:13;;;;;;;54.17;24.90;;;1.10;99.90;;;;;;5019699;28;20250;-86
2023/12/01 00:59:39;;;;;;;55.53;24.67;;;1.10;99.90;;;;;;5037215;28;20205;-85
2023/12/01 01:02:04;;;;;;;55.43;26.33;;;0.90;99.90;;;;;;5020160;28;20181;-85
2023/12/01 01:04:30;;;;;;;53.40;25.20;;;1.10;99.90;;;;;;5003700;28;20196;-84
2023/12/01 01:06:55;;;;;;;59.77;25.80;;;1.00;99.90;;;;;;5019626;28;20185;-85
2023/12/01 01:09:21;;;;;;;51.93;25.57;;;1.00;99.90;;;;;;5019518;28;20200;-86
2023/12/01 01:11:46;;;;;;;50.13;25.03;;;1.00;99.90;;;;;;5020368;28;20266;-87
2023/12/01 01:14:12;;;;;;;56.20;25.00;;;1.00;99.90;;;;;;5020059;28;20208;-84
2023/12/01 01:16:40;;;;;;;53.67;24.83;;;1.00;99.90;;;;;;5037762;28;20184;-84
2023/12/01 01:19:05;;;;;;;59.37;26.80;;;1.00;99.90;;;;;;5019248;28;20220;-86
2023/12/01 01:21:31;;;;;;;61.63;27.80;;;1.00;99.90;;;;;;5019288;28;20557;-84
2023/12/01 01:23:56;;;;;;;58.37;27.53;;;2.80;99.90;;;;;;5036699;28;20187;-85
2023/12/01 01:26:23;;;;;;;60.60;27.87;;;0.90;99.90;;;;;;5018971;28;20594;-87
2023/12/01 01:28:49;;;;;;;54.67;25.27;;;0.90;99.90;;;;;;5018442;28;20222;-86
2023/12/01 01:31:14;;;;;;;66.47;28.33;;;0.90;99.90;;;;;;5020532;28;20177;-87
2023/12/01 01:33:40;;;;;;;63.57;28.10;;;0.90;99.90;;;;;;5019559;28;20235;-84
2023/12/01 01:36:06;;;;;;;56.83;26.23;;;0.80;99.90;;;;;;5037996;28;20636;-87
2023/12/01 01:38:32;;;;;;;56.30;24.40;;;0.80;99.90;;;;;;5038181;28;20188;-85
2023/12/01 01:40:58;;;;;;;58.40;25.47;;;0.80;99.90;;;;;;5020390;28;20663;-87
2023/12/01 01:43:24;;;;;;;55.80;25.23;;;0.80;99.90;;;;;;5021393;28;20189;-88
2023/12/01 01:46:05;;;;;;;60.13;27.33;;;0.80;99.90;;;;;;5054274;28;20177;-85
2023/12/01 01:48:34;;;;;;;60.00;24.97;;;0.80;99.90;;;;;;5039728;28;20197;-86
2023/12/01 01:51:01;;;;;;;61.33;24.73;;;0.80;99.90;;;;;;5039992;28;20208;-85
2023/12/01 01:53:28;;;;;;;60.60;26.17;;;0.70;99.90;;;;;;5041412;28;20240;-86
2023/12/01 01:55:58;;;;;;;56.03;24.77;;;0.70;99.90;;;;;;5040920;28;20204;-85
2023/12/01 01:58:24;;;;;;;66.43;26.23;;;0.70;99.90;;;;;;5056730;28;20211;-86
2023/12/01 02:00:50;;;;;;;60.00;26.43;;;0.70;99.90;;;;;;5041374;28;20173;-82
2023/12/01 02:03:21;;;;;;;66.77;28.00;;;0.70;99.90;;;;;;5058958;28;20187;-85
2023/12/01 02:05:50;;;;;;;69.07;26.87;;;0.70;99.90;;;;;;5039178;28;20182;-86
2023/12/01 02:08:25;;;;;;;69.23;28.47;;;0.70;99.90;;;;;;5058311;28;20188;-82
2023/12/01 02:10:57;;;;;;;60.93;25.57;;;0.70;99.90;;;;;;5040636;28;20665;-85
2023/12/01 02:13:23;;;;;;;62.83;24.57;;;0.60;99.90;;;;;;5039395;28;20197;-86
2023/12/01 02:15:50;;;;;;;69.50;27.23;;;0.60;99.90;;;;;;5057729;28;20180;-85
2023/12/01 02:18:23;;;;;;;66.73;27.73;;;0.60;99.90;;;;;;5056078;28;20207;-84
2023/12/01 02:20:50;;;;;;;64.03;27.50;;;0.60;99.90;;;;;;5039213;28;20205;-85
2023/12/01 02:23:16;;;;;;;64.23;26.87;;;0.60;99.90;;;;;;5056318;28;20187;-85
2023/12/01 02:25:41;;;;;;;63.90;26.13;;;0.50;99.90;;;;;;5040001;28;20177;-86
2023/12/01 02:28:07;;;;;;;66.93;29.07;;;0.60;99.90;;;;;;5038695;28;20211;-85
2023/12/01 02:30:33;;;;;;;62.23;25.53;;;0.40;99.90;;;;;;5056899;28;20210;-85
2023/12/01 02:32:59;;;;;;;61.87;24.30;;;0.50;99.90;;;;;;5039257;28;20227;-86
2023/12/01 02:35:32;;;;;;;67.43;26.77;;;0.50;99.90;;;;;;5038728;28;20216;-85
2023/12/01 02:37:58;;;;;;;63.53;26.07;;;0.60;99.90;;;;;;5059686;28;20164;-81
2023/12/01 02:40:25;;;;;;;62.83;25.87;;;0.60;99.90;;;;;;5042998;28;20215;-81
2023/12/01 02:42:52;;;;;;;53.90;24.17;;;0.50;99.90;;;;;;5043478;28;20188;-82
2023/12/01 02:45:18;;;;;;;72.70;28.97;;;0.50;99.90;;;;;;5060504;28;20161;-84
2023/12/01 02:47:47;;;;;;;69.80;29.47;;;0.50;99.90;;;;;;5043466;28;20247;-81
2023/12/01 02:50:16;;;;;;;68.07;26.50;;;0.50;99.90;;;;;;5060397;28;20188;-85
2023/12/01 02:52:42;;;;;;;60.70;24.63;;;0.50;99.90;;;;;;5060284;28;20164;-81
2023/12/01 02:55:08;;;;;;;49.40;20.57;;;0.40;99.90;;;;;;5043288;28;20223;-83
2023/12/01 02:57:35;;;;;;;58.10;25.03;;;0.40;99.90;;;;;;5024474;28;20189;-81
2023/12/01 03:00:05;;;;;;;64.00;27.17;;;0.50;99.90;;;;;;5038715;28;20203;-83
2023/12/01 03:02:31;;;;;;;68.83;26.30;;;0.40;99.90;;;;;;5037867;28;20166;-83
2023/12/01 03:04:58;;;;;;;65.17;26.07;;;0.40;99.90;;;;;;5038425;28;20191;-82
2023/12/01 03:07:24;;;;;;;60.33;24.97;;;0.40;99.90;;;;;;5020125;28;20187;-82
2023/12/01 03:09:49;;;;;;;65.53;27.93;;;0.50;99.90;;;;;;5020028;28;20215;-81
2023/12/01 03:12:17;;;;;;;61.10;27.27;;;0.40;99.90;;;;;;5037999;28;20250;-83
2023/12/01 03:14:43;;;;;;;67.03;28.93;;;0.40;99.90;;;;;;5037551;28;20270;-82
2023/12/01 03:17:08;;;;;;;54.20;26.17;;;0.40;99.90;;;;;;5020682;28;20653;-82
2023/12/01 03:19:34;;;;;;;59.30;23.73;;;0.40;99.90;;;;;;5019539;28;20707;-83
2023/12/01 03:21:59;;;;;;;41.10;19.23;;;0.40;99.90;;;;;;5019796;28;20648;-85
2023/12/01 03:24:25;;;;;;;38.70;21.67;;;0.40;99.90;;;;;;5020215;28;20184;-82
2023/12/01 03:26:51;;;;;;;39.60;19.67;;;0.40;99.90;;;;;;5037736;28;20195;-83
2023/12/01 03:29:16;;;;;;;45.97;21.93;;;0.40;99.90;;;;;;5020054;28;20207;-84
2023/12/01 03:31:42;;;;;;;43.27;21.13;;;0.40;99.90;;;;;;5019370;28;20180;-82
2023/12/01 03:34:07;;;;;;;42.50;20.07;;;0.40;99.90;;;;;;5019980;28;20204;-83
2023/12/01 03:36:33;;;;;;;49.30;22.20;;;0.40;99.90;;;;;;5019521;28;20179;-84
2023/12/01 03:38:59;;;;;;;49.63;23.17;;;0.40;99.90;;;;;;5037105;28;20577;-82
2023/12/01 03:41:24;;;;;;;51.67;24.27;;;0.40;99.90;;;;;;5019801;28;20180;-86
2023/12/01 03:43:50;;;;;;;47.63;23.30;;;0.40;99.90;;;;;;5036174;28;20645;-84
2023/12/01 03:46:16;;;;;;;44.30;19.87;;;0.40;99.90;;;;;;5003067;28;20207;-87
2023/12/01 03:48:41;;;;;;;42.67;20.40;;;0.50;99.90;;;;;;5036080;28;20710;-86
2023/12/01 03:51:11;;;;;;;45.40;20.20;;;0.50;99.90;;;;;;5036172;28;20183;-83
2023/12/01 03:53:37;;;;;;;50.43;22.30;;;0.50;99.90;;;;;;5018711;28;20236;-87
2023/12/01 03:56:03;;;;;;;50.30;23.03;;;0.50;99.90;;;;;;5018426;28;20234;-87
2023/12/01 03:58:30;;;;;;;59.10;25.80;;;0.50;99.90;;;;;;5018798;28;20212;-85
2023/12/01 04:00:55;;;;;;;47.87;22.87;;;0.50;99.90;;;;;;5018902;28;20172;-88
2023/12/01 04:03:24;;;;;;;49.70;22.77;;;0.50;99.90;;;;;;5036060;28;20219;-87
2023/12/01 04:05:50;;;;;;;46.70;22.53;;;0.50;99.90;;;;;;5018952;28;20715;-86
2023/12/01 04:08:15;;;;;;;48.23;22.37;;;0.50;99.90;;;;;;5020123;28;20180;-87
2023/12/01 04:10:42;;;;;;;52.40;22.63;;;0.50;99.90;;;;;;5030878;28;20185;-82
2023/12/01 04:13:08;;;;;;;52.30;23.07;;;0.50;99.90;;;;;;5019104;28;20215;-84
2023/12/01 04:15:36;;;;;;;52.10;23.37;;;1.00;99.90;;;;;;5037373;28;20181;-83
2023/12/01 04:18:06;;;;;;;52.20;24.60;;;0.50;99.90;;;;;;5003907;28;20196;-84
2023/12/01 04:20:38;;;;;;;52.37;24.37;;;0.50;99.90;;;;;;5019526;28;20583;-84
2023/12/01 04:23:11;;;;;;;46.63;21.13;;;0.60;99.90;;;;;;5037374;28;20235;-83
2023/12/01 04:25:37;;;;;;;48.03;20.97;;;0.60;99.90;;;;;;5020051;28;20207;-82
2023/12/01 04:28:04;;;;;;;49.67;25.87;;;0.60;99.90;;;;;;5037275;28;20192;-84
2023/12/01 04:30:30;;;;;;;48.13;22.27;;;0.50;99.90;;;;;;5019605;28;20223;-84
2023/12/01 04:32:57;;;;;;;44.57;22.47;;;0.60;99.90;;;;;;5020224;28;20207;-81
2023/12/01 04:35:24;;;;;;;43.63;22.20;;;0.60;99.90;;;;;;5020396;28;20187;-81
2023/12/01 04:37:50;;;;;;;40.77;20.63;;;0.60;99.90;;;;;;5020432;28;20181;-84
2023/12/01 04:40:15;;;;;;;47.43;20.57;;;0.60;99.90;;;;;;5003509;28;20640;-84
2023/12/01 04:42:49;;;;;;;40.83;20.17;;;0.60;99.90;;;;;;5019582;28;20569;-83
2023/12/01 04:45:17;;;;;;;37.70;20.37;;;0.60;99.90;;;;;;5020240;28;20248;-86
2023/12/01 04:47:45;;;;;;;45.20;22.90;;;0.60;99.90;;;;;;5037858;28;20184;-84
2023/12/01 04:50:12;;;;;;;42.50;20.47;;;0.60;99.90;;;;;;5019367;28;20552;-85
2023/12/01 04:52:58;;;;;;;43.40;21.83;;;0.60;99.90;;;;;;5019399;28;20727;-83
2023/12/01 04:55:26;;;;;;;46.33;21.53;;;0.60;99.90;;;;;;5019124;28;20196;-82
2023/12/01 04:57:52;;;;;;;44.10;22.47;;;0.60;99.90;;;;;;5037150;28;20186;-81
2023/12/01 05:00:25;;;;;;;45.83;22.70;;;0.60;99.90;;;;;;5004555;28;20214;-84
2023/12/01 05:02:59;;;;;;;45.97;23.00;;;0.50;99.90;;;;;;5022741;28;20184;-83
2023/12/01 05:05:30;;;;;;;45.67;22.60;;;0.70;99.90;;;;;;5008384;28;20659;-82
2023/12/01 05:07:57;;;;;;;46.63;21.50;;;0.70;99.90;;;;;;5023631;28;20184;-83
2023/12/01 05:10:34;;;;;;;47.10;22.53;;;0.70;99.90;;;;;;5042370;28;20227;-84
2023/12/01 05:13:06;;;;;;;45.80;22.50;;;0.70;99.90;;;;;;5008556;28;20549;-84
2023/12/01 05:15:36;;;;;;;41.13;19.40;;;0.70;99.90;;;;;;5024253;28;20181;-82
2023/12/01 05:18:10;;;;;;;38.83;19.30;;;0.60;99.90;;;;;;5023369;28;20234;-82
2023/12/01 05:20:36;;;;;;;44.60;22.83;;;0.70;99.90;;;;;;5006180;28;20176;-83
2023/12/01 05:23:09;;;;;;;43.87;20.87;;;0.70;99.90;;;;;;5039879;28;20730;-84
2023/12/01 05:25:36;;;;;;;45.23;20.67;;;0.70;99.90;;;;;;5023281;28;20208;-82
2023/12/01 05:28:06;;;;;;;38.33;21.87;;;0.70;99.90;;;;;;5024772;28;20185;-85
2023/12/01 05:30:33;;;;;;;40.50;20.00;;;0.70;99.90;;;;;;5017574;28;20699;-83
2023/12/01 05:32:59;;;;;;;42.47;19.80;;;0.70;99.90;;;;;;5005945;28;20184;-83
2023/12/01 05:35:25;;;;;;;39.63;20.87;;;0.70;99.90;;;;;;5022639;28;20183;-83
2023/12/01 05:37:53;;;;;;;40.47;20.80;;;0.70;99.90;;;;;;5023023;28;20676;-83
2023/12/01 05:40:36;;;;;;;35.17;19.70;;;0.70;99.90;;;;;;5039932;28;20562;-83
2023/12/01 05:43:05;;;;;;;39.40;21.23;;;0.70;99.90;;;;;;5039842;28;20166;-82
2023/12/01 05:45:33;;;;;;;39.93;20.83;;;0.70;99.90;;;;;;5022130;28;20228;-81
2023/12/01 05:47:59;;;;;;;40.83;21.23;;;0.70;99.90;;;;;;5022708;28;20217;-84
2023/12/01 05:50:26;;;;;;;41.70;21.80;;;0.70;99.90;;;;;;5021770;28;20602;-83
2023/12/01 05:52:58;;;;;;;45.30;22.93;;;0.70;99.90;;;;;;5038637;28;20451;-81
2023/12/01 05:55:27;;;;;;;42.37;21.73;;;0.70;99.90;;;;;;5021272;28;20188;-85
2023/12/01 05:58:09;;;;;;;40.73;22.30;;;0.70;99.90;;;;;;5020649;28;20177;-82
2023/12/01 06:00:36;;;;;;;43.20;21.50;;;0.70;99.90;;;;;;5019612;28;20189;-84
2023/12/01 06:03:06;;;;;;;41.43;21.10;;;0.80;99.90;;;;;;5021287;28;20274;-87
2023/12/01 06:05:33;;;;;;;37.13;20.63;;;0.70;99.90;;;;;;5038685;28;20164;-82
2023/12/01 06:08:00;;;;;;;39.07;22.57;;;0.70;99.90;;;;;;5021158;28;20177;-85
2023/12/01 06:10:28;;;;;;;37.73;20.17;;;0.70;99.90;;;;;;5039162;28;20253;-83
2023/12/01 06:12:54;;;;;;;42.47;21.30;;;0.80;99.90;;;;;;5038157;28;20722;-86
2023/12/01 06:15:19;;;;;;;39.07;19.93;;;0.80;99.90;;;;;;5020569;28;20216;-85
2023/12/01 06:17:47;;;;;;;37.40;19.87;;;0.80;99.90;;;;;;5020575;28;20667;-84
2023/12/01 06:20:20;;;;;;;40.10;21.13;;;0.80;99.90;;;;;;5021936;28;20207;-86
2023/12/01 06:23:00;;;;;;;36.43;19.27;;;0.80;99.90;;;;;;5039354;28;20215;-86
2023/12/01 06:25:28;;;;;;;36.13;19.20;;;0.80;99.90;;;;;;5021425;28;20180;-87
2023/12/01 06:27:59;;;;;;;44.97;22.27;;;0.80;99.90;;;;;;5040253;28;20547;-84
2023/12/01 06:30:26;;;;;;;41.13;20.63;;;0.80;99.90;;;;;;5030859;28;20220;-82
2023/12/01 06:32:52;;;;;;;38.97;21.27;;;0.80;99.90;;;;;;5019562;28;20655;-85
2023/12/01 06:35:20;;;;;;;45.10;21.90;;;0.80;99.90;;;;;;5019698;28;20467;-84
2023/12/01 06:37:47;;;;;;;46.27;21.97;;;0.80;99.90;;;;;;5038759;28;20228;-88
2023/12/01 06:40:15;;;;;;;42.63;21.80;;;0.80;99.90;;;;;;5036852;28;20193;-82
2023/12/01 06:42:51;;;;;;;41.30;21.53;;;0.80;99.90;;;;;;5037273;28;20311;-82
2023/12/01 06:45:26;;;;;;;40.57;21.93;;;0.80;99.90;;;;;;5036967;28;20215;-85
2023/12/01 06:47:53;;;;;;;41.40;21.97;;;0.80;99.90;;;;;;5020182;28;20251;-79
2023/12/01 06:50:19;;;;;;;38.67;20.57;;;0.80;99.90;;;;;;5018748;28;20208;-83
2023/12/01 06:52:52;;;;;;;36.00;19.50;;;0.80;99.90;;;;;;5018872;28;20263;-81
2023/12/01 06:55:18;;;;;;;40.27;19.67;;;0.80;99.90;;;;;;5019290;28;20208;-81
2023/12/01 06:57:45;;;;;;;40.50;21.53;;;0.80;99.90;;;;;;5019069;28;20194;-80
2023/12/01 07:00:56;;;;;;;39.00;21.20;;;0.80;99.90;;;;;;5036646;28;20212;-82
2023/12/01 07:03:05;;;;;;;44.77;22.10;;;0.80;99.90;;;;;;5028541;28;20251;-84
2023/12/01 07:05:32;;;;;;;40.83;20.23;;;0.80;99.90;;;;;;5002022;28;20187;-80
2023/12/01 07:07:59;;;;;;;39.50;20.70;;;0.70;99.90;;;;;;5036597;28;20203;-83
2023/12/01 07:10:27;;;;;;;45.80;21.13;;;0.80;99.90;;;;;;5018459;28;20204;-81
2023/12/01 07:12:53;;;;;;;42.90;22.50;;;0.80;99.90;;;;;;5002030;28;20184;-83
2023/12/01 07:15:22;;;;;;;52.97;24.90;;;0.80;99.90;;;;;;5018119;28;20275;-83
2023/12/01 07:17:56;;;;;;;51.77;23.80;;;0.80;99.90;;;;;;5017880;28;20200;-82
2023/12/01 07:20:22;;;;;;;46.40;23.27;;;0.80;99.90;;;;;;5018185;28;20671;-81
2023/12/01 07:22:49;;;;;;;51.87;23.10;;;0.80;99.90;;;;;;5018262;28;20180;-83
2023/12/01 07:25:23;;;;;;;45.93;23.20;;;0.80;99.90;;;;;;5035542;28;20568;-82
2023/12/01 07:27:50;;;;;;;47.13;22.23;;;0.80;99.90;;;;;;5003179;28;20560;-82
2023/12/01 07:30:16;;;;;;;55.30;23.50;;;0.80;99.90;;;;;;5042177;28;20200;-82
2023/12/01 07:32:46;;;;;;;51.30;24.13;;;0.80;99.90;;;;;;5006482;28;20193;-88
2023/12/01 07:35:13;;;;;;;46.67;22.23;;;0.80;99.90;;;;;;5023347;28;20211;-88
2023/12/01 07:37:42;;;;;;;44.17;21.20;;;0.80;99.90;;;;;;5023419;28;20185;-87
2023/12/01 07:40:11;;;;;;;47.50;21.87;;;0.70;99.90;;;;;;5023070;28;20200;-89
2023/12/01 07:42:37;;;;;;;42.37;22.07;;;0.80;99.90;;;;;;5023349;28;20184;-90
2023/12/01 07:45:04;;;;;;;42.07;20.43;;;0.70;99.90;;;;;;5023618;28;20215;-88
2023/12/01 07:47:30;;;;;;;35.97;18.40;;;0.80;99.90;;;;;;5022334;28;20189;-86
2023/12/01 07:49:55;;;;;;;41.20;19.33;;;0.80;99.90;;;;;;5023598;28;20216;-87
2023/12/01 07:52:21;;;;;;;40.53;19.37;;;0.80;99.90;;;;;;5023066;28;20196;-87
2023/12/01 07:54:47;;;;;;;38.87;18.53;;;0.80;99.90;;;;;;5024846;28;20207;-87
2023/12/01 07:57:12;;;;;;;40.57;20.30;;;0.80;99.90;;;;;;5042446;28;20237;-85
2023/12/01 07:59:38;;;;;;;47.50;20.10;;;0.40;99.90;;;;;;5023693;28;20200;-87
2023/12/01 08:02:04;;;;;;;35.63;18.80;;;1.20;99.90;;;;;;5023577;28;20189;-88
2023/12/01 08:04:30;;;;;;;35.40;18.30;;;0.80;99.90;;;;;;5023122;28;20254;-88
2023/12/01 08:06:56;;;;;;;42.57;19.37;;;0.80;99.90;;;;;;5023324;28;20177;-90
2023/12/01 08:09:23;;;;;;;40.23;19.53;;;0.70;99.90;;;;;;5022150;28;20197;-88
2023/12/01 08:11:49;;;;;;;38.50;18.60;;;0.90;99.90;;;;;;5022045;28;20647;-91
2023/12/01 08:14:14;;;;;;;40.83;19.73;;;2.30;99.90;;;;;;5039695;28;20293;-88
2023/12/01 08:16:40;;;;;;;40.23;20.33;;;0.90;99.90;;;;;;5021891;28;20188;-90
2023/12/01 08:19:09;;;;;;;43.33;20.43;;;0.90;99.90;;;;;;5020600;28;20212;-89
2023/12/01 08:21:38;;;;;;;38.60;19.63;;;0.90;99.90;;;;;;5038970;28;20175;-87
2023/12/01 08:24:04;;;;;;;38.07;18.43;;;3.00;99.90;;;;;;5021425;28;20624;-89
2023/12/01 08:26:32;;;;;;;38.37;18.37;;;0.90;99.90;;;;;;5021185;28;20184;-89
2023/12/01 08:29:01;;;;;;;34.70;18.97;;;0.80;99.90;;;;;;5038089;28;20204;-92
2023/12/01 08:31:26;;;;;;;38.37;18.17;;;0.70;99.90;;;;;;5021678;28;20191;-89
2023/12/01 08:33:52;;;;;;;41.33;20.70;;;3.10;99.90;;;;;;5020661;28;20200;-91
2023/12/01 08:36:18;;;;;;;36.73;18.57;;;1.00;99.90;;;;;;5038575;28;20181;-90
2023/12/01 08:38:45;;;;;;;35.03;19.03;;;1.00;99.90;;;;;;5042322;28;20239;-90
2023/12/01 08:41:11;;;;;;;34.63;17.37;;;0.90;99.90;;;;;;5023772;28;20189;-88
2023/12/01 08:43:37;;;;;;;34.33;17.93;;;2.70;99.90;;;;;;5024388;28;20183;-88
2023/12/01 08:46:02;;;;;;;34.90;18.07;;;2.20;99.90;;;;;;5023604;28;20644;-91
2023/12/01 08:48:28;;;;;;;41.33;19.93;;;1.10;99.90;;;;;;5055660;28;20219;-89
2023/12/01 08:50:54;;;;;;;41.80;20.23;;;3.90;99.90;;;;;;5043988;28;20187;-90
2023/12/01 08:53:22;;;;;;;43.73;21.87;;;3.50;99.90;;;;;;5043304;28;20220;-89
2023/12/01 08:55:50;;;;;;;34.30;19.67;;;2.80;99.90;;;;;;5026185;28;20272;-88
2023/12/01 08:58:18;;;;;;;44.03;24.43;;;1.10;99.90;;;;;;5026363;28;20268;-88
2023/12/01 09:00:44;;;;;;;43.27;21.87;;;3.20;99.90;;;;;;5026787;28;20181;-86
2023/12/01 09:03:10;;;;;;;35.83;18.47;;;1.10;99.90;;;;;;5025894;28;20187;-87
2023/12/01 09:05:35;;;;;;;42.23;20.50;;;1.90;99.90;;;;;;5042882;28;20215;-88
2023/12/01 09:08:05;;;;;;;47.47;24.43;;;3.00;99.90;;;;;;5025962;28;20312;-88
2023/12/01 09:10:35;;;;;;;37.70;21.67;;;3.40;99.90;;;;;;5025392;28;20231;-87
2023/12/01 09:13:01;;;;;;;45.83;23.50;;;2.00;99.90;;;;;;5026173;28;20168;-89
2023/12/01 09:15:29;;;;;;;46.80;25.13;;;2.60;99.90;;;;;;5043174;28;20637;-88
2023/12/01 09:17:54;;;;;;;47.23;25.17;;;4.50;99.90;;;;;;5026614;28;20686;-88
2023/12/01 09:20:20;;;;;;;44.93;21.57;;;3.40;99.90;;;;;;5026200;28;20201;-88
2023/12/01 09:22:46;;;;;;;49.67;26.47;;;1.50;99.90;;;;;;5044106;28;20181;-89
2023/12/01 09:25:12;;;;;;;54.77;29.50;;;3.20;99.90;;;;;;5025864;28;20275;-88
2023/12/01 09:27:41;;;;;;;65.83;34.90;;;1.10;99.90;;;;;;5025785;28;20181;-90
2023/12/01 09:30:10;;;;;;;44.13;23.90;;;1.90;99.90;;;;;;5042836;28;20293;-88
2023/12/01 09:32:36;;;;;;;52.47;28.97;;;1.40;99.90;;;;;;5045508;28;20257;-88
2023/12/01 09:35:02;;;;;;;37.73;20.70;;;0.90;99.90;;;;;;5026970;28;20231;-89
2023/12/01 09:37:28;;;;;;;40.13;21.93;;;1.40;99.90;;;;;;5027597;28;20182;-87
2023/12/01 09:39:53;;;;;;;38.40;19.57;;;2.70;99.90;;;;;;5026865;28;20234;-90
2023/12/01 09:42:22;;;;;;;36.97;19.53;;;2.80;99.90;;;;;;5026271;28;20192;-89
2023/12/01 09:44:55;;;;;;;38.97;19.67;;;3.80;99.90;;;;;;5026001;28;20208;-86
2023/12/01 09:47:22;;;;;;;34.00;18.23;;;2.80;99.90;;;;;;5025617;28;20213;-88
2023/12/01 09:49:49;;;;;;;34.27;19.60;;;2.10;99.90;;;;;;5025058;28;20271;-91
2023/12/01 09:52:15;;;;;;;36.17;16.77;;;1.00;99.90;;;;;;5025915;28;20645;-88
2023/12/01 09:54:41;;;;;;;30.93;16.57;;;3.30;99.90;;;;;;5025817;28;20200;-90
2023/12/01 09:57:06;;;;;;;34.97;18.77;;;2.90;99.90;;;;;;5026657;28;20187;-86
2023/12/01 09:59:36;;;;;;;33.60;17.57;;;2.90;99.90;;;;;;5042187;28;20275;-90
2023/12/01 10:02:03;;;;;;;27.27;15.67;;;3.70;99.90;;;;;;5025280;28;20181;-89
2023/12/01 10:04:34;;;;;;;33.57;18.17;;;1.50;99.90;;;;;;5025419;28;20188;-86
2023/12/01 10:07:03;;;;;;;36.40;18.60;;;2.50;99.90;;;;;;5025682;28;20691;-92
2023/12/01 10:09:35;;;;;;;33.37;16.33;;;1.60;99.90;;;;;;5025527;28;20643;-92
2023/12/01 10:12:12;;;;;;;28.37;15.20;;;1.40;99.90;;;;;;5009742;28;20196;-88
2023/12/01 10:14:41;;;;;;;27.13;14.53;;;1.60;99.90;;;;;;5025639;28;20208;-88
2023/12/01 10:17:08;;;;;;;27.60;15.47;;;1.60;99.90;;;;;;5026056;28;20335;-88
2023/12/01 10:19:44;;;;;;;24.83;13.73;;;1.60;99.90;;;;;;5024985;28;20696;-89
2023/12/01 10:22:12;;;;;;;26.83;14.00;;;1.70;99.90;;;;;;5025281;28;20176;-89
2023/12/01 10:24:37;;;;;;;29.17;16.60;;;1.60;99.90;;;;;;5023832;28;20249;-87
2023/12/01 10:27:05;;;;;;;33.80;17.10;;;1.60;99.90;;;;;;5024442;28;20204;-89
2023/12/01 10:29:31;;;;;;;24.37;14.23;;;1.60;99.90;;;;;;5024299;28;20204;-89
2023/12/01 10:32:02;;;;;;;26.67;14.07;;;1.60;99.90;;;;;;5040688;28;20204;-88
2023/12/01 10:34:29;;;;;;;22.27;12.67;;;1.60;99.90;;;;;;5040966;28;20208;-87
2023/12/01 10:36:55;;;;;;;24.67;13.83;;;1.50;99.90;;;;;;5023348;28;20642;-90
2023/12/01 10:39:27;;;;;;;24.33;12.87;;;1.50;99.90;;;;;;5041150;28;20193;-90
2023/12/01 10:41:54;;;;;;;24.47;12.93;;;1.40;99.90;;;;;;5024405;28;20177;-89
2023/12/01 10:44:25;;;;;;;23.53;13.27;;;1.20;99.90;;;;;;5023904;28;20185;-86
2023/12/01 10:46:52;;;;;;;28.00;15.23;;;1.20;99.90;;;;;;5023018;28;20169;-91
2023/12/01 10:49:19;;;;;;;28.57;16.40;;;1.10;99.90;;;;;;5022635;28;20203;-89
2023/12/01 10:51:45;;;;;;;29.23;15.00;;;1.10;99.90;;;;;;5022666;28;20181;-90
2023/12/01 10:54:12;;;;;;;20.13;10.73;;;1.10;99.90;;;;;;5021335;28;20197;-88
2023/12/01 10:56:55;;;;;;;25.33;14.70;;;1.10;99.90;;;;;;5022365;28;20215;-90
2023/12/01 10:59:24;;;;;;;22.47;12.77;;;1.00;99.90;;;;;;5021446;28;20189;-90
2023/12/01 11:01:53;;;;;;;17.03;9.07;;;1.00;99.90;;;;;;5021316;28;20173;-91
2023/12/01 11:04:26;;;;;;;22.70;12.63;;;0.90;99.90;;;;;;5022085;28;20203;-92
2023/12/01 11:07:29;;;;;;;24.23;12.57;;;0.80;99.90;;;;;;5034668;28;20177;-92
2023/12/01 11:10:14;;;;;;;20.53;11.17;;;0.90;99.90;;;;;;5022554;28;20196;-91
2023/12/01 11:13:03;;;;;;;22.73;13.20;;;0.90;99.90;;;;;;5023433;28;20165;-89
2023/12/01 11:15:31;;;;;;;22.97;12.60;;;0.80;99.90;;;;;;5021905;28;20297;-90
2023/12/01 11:17:57;;;;;;;23.23;12.60;;;0.80;99.90;;;;;;5023932;28;20197;-88
2023/12/01 11:20:37;;;;;;;19.27;11.37;;;0.80;99.90;;;;;;5024051;28;20225;-88
2023/12/01 11:23:09;;;;;;;19.30;10.70;;;0.70;99.90;;;;;;5023033;28;20188;-87
2023/12/01 11:25:50;;;;;;;20.17;11.67;;;0.90;99.90;;;;;;5023600;28;20178;-90
2023/12/01 11:28:25;;;;;;;19.87;10.33;;;0.80;99.90;;;;;;5023466;28;20625;-90
2023/12/01 11:31:08;;;;;;;23.07;12.50;;;0.80;99.90;;;;;;5040945;28;20153;-91
2023/12/01 11:33:43;;;;;;;21.97;12.73;;;0.80;99.90;;;;;;5022581;28;20208;-89
2023/12/01 11:36:31;;;;;;;21.93;13.03;;;0.80;99.90;;;;;;5023237;28;20168;-90
2023/12/01 11:39:20;;;;;;;19.10;11.97;;;0.90;99.90;;;;;;5022043;28;20204;-91
2023/12/01 11:41:50;;;;;;;15.80;10.27;;;0.90;99.90;;;;;;5022118;28;20169;-90
2023/12/01 11:44:32;;;;;;;21.30;12.33;;;0.90;99.90;;;;;;5039083;28;20173;-88
2023/12/01 11:47:01;;;;;;;24.80;16.83;;;0.90;99.90;;;;;;5021735;28;20280;-91
2023/12/01 11:49:38;;;;;;;20.40;12.43;;;0.90;99.90;;;;;;5020589;28;20287;-90
2023/12/01 11:52:24;;;;;;;17.70;10.93;;;0.90;99.90;;;;;;5020487;28;20671;-93
2023/12/01 11:54:50;;;;;;;16.23;10.33;;;0.90;99.90;;;;;;5025455;28;20235;-88
2023/12/01 11:57:17;;;;;;;16.30;10.40;;;1.30;99.90;;;;;;5034261;28;20173;-88
2023/12/01 11:59:45;;;;;;;15.53;9.40;;;0.90;99.90;;;;;;5033657;28;20261;-87
2023/12/01 12:02:11;;;;;;;14.67;9.43;;;0.90;99.90;;;;;;5026845;28;20181;-88
2023/12/01 12:04:37;;;;;;;16.07;8.83;;;3.00;99.90;;;;;;5041550;28;20189;-90
2023/12/01 12:07:04;;;;;;;13.67;9.10;;;1.90;99.90;;;;;;5040711;28;20206;-87
2023/12/01 12:09:32;;;;;;;15.03;9.43;;;0.90;99.90;;;;;;5024296;28;20226;-86
2023/12/01 12:11:59;;;;;;;13.93;8.00;;;0.30;99.90;;;;;;5023829;28;20188;-87
2023/12/01 12:14:30;;;;;;;16.90;8.90;;;1.90;99.90;;;;;;5024757;28;20208;-89
2023/12/01 12:16:55;;;;;;;16.40;9.90;;;2.90;99.90;;;;;;5024566;28;20217;-88
2023/12/01 12:19:22;;;;;;;14.73;8.93;;;2.20;99.90;;;;;;5041327;28;20680;-85
2023/12/01 12:21:51;;;;;;;14.10;8.43;;;3.10;99.90;;;;;;5024432;28;20181;-88
2023/12/01 12:24:17;;;;;;;16.87;8.80;;;2.50;99.90;;;;;;5041290;28;20181;-87
2023/12/01 12:26:43;;;;;;;17.53;9.37;;;3.70;99.90;;;;;;5042484;28;20203;-85
2023/12/01 12:29:09;;;;;;;17.83;11.73;;;2.90;99.90;;;;;;5041232;28;20197;-90
2023/12/01 12:31:40;;;;;;;14.80;8.60;;;3.00;99.90;;;;;;5024377;28;20187;-88
2023/12/01 12:34:07;;;;;;;14.60;8.50;;;2.20;99.90;;;;;;5025534;28;20203;-91
2023/12/01 12:36:35;;;;;;;11.97;8.20;;;2.80;99.90;;;;;;5024209;28;20173;-89
2023/12/01 12:39:03;;;;;;;10.87;6.80;;;2.80;99.90;;;;;;5023822;28;20205;-87
2023/12/01 12:41:37;;;;;;;12.97;8.17;;;0.70;99.90;;;;;;5024670;28;20299;-90
2023/12/01 12:44:04;;;;;;;13.30;8.23;;;3.00;99.90;;;;;;5024205;28;20206;-87